Terminal Aerodrome Forecast
Issued by NWS Los Angeles, CA

Home | Current Version | Previous Version | Text Only | Print | Product List | Glossary On
Versions: 1 2 3 4 5 6 7 8 9 10 11 12 13 14 15 16 17 18 19 20 21
000
FTUS46 KLOX 281700
TAFSMX
TAF
KSMX 281740Z 2818/0118 VRB03KT P6SM SCT035 BKN070
      TEMPO 2818/2820 -SHRA BKN030
     FM282000 28009KT 6SM -SHRA SCT025 BKN040
      TEMPO 2820/2824 BKN024
     FM010300 21008KT P6SM -SHRA SCT025 OVC035
     FM010700 VRB03KT P6SM VCSH SCT025 BKN040
     FM011100 VRB03KT 5SM BR BKN020=

USA.gov is the U.S. government's official web portal to all federal, state and local government web resources and services.